CYXL

Sioux Lookout Airport

Sioux Lookout, Ontario, Canada
METAR CYXL 162110Z 31021G31KT 280V340 4SM -SN BLSN FEW020 OVC024 M05/M09 A2985 RMK SC1SC7 PRESRR SLP132
Observed Flight Rules
Dec-16 @ 21:10 UTC (54 minutes ago) Marginal Visual Flight Rules
Wind Visibility Clouds Conditions
310° at 21 knots
 Gusting to 31 knots
4 miles
  • Few at 2,000' AGL
  • Overcast at 2,400' AGL
  • Light Snow
  • Blowing
  • Snow
Temperatures Readings
Current -5°C / 23°F
Dewpoint -9°C / 16°F
Humidity 74%
Altimeter 29.85" Hg
Pressure 1013.2 hPa
Elevation 390
METAR CYXL 162110Z 31021G31KT 280V340 4SM -SN BLSN FEW020 OVC024 M05/M09 A2985 RMK SC1SC7 PRESRR SLP132
Observed Flight Rules
Dec-16 @ 21:10 UTC
(54 minutes ago)
MVFR
Wind Visibility
310° at 21 knots
 Gusting to 31 knots
4 miles
Clouds
  • Few at 2,000' AGL
  • Overcast at 2,400' AGL
Conditions
  • Light Snow
  • Blowing
  • Snow
Temperature Dewpoint
-5°C / 23°F -9°C / 16°F
Humidity Altimeter Pressure
74% 29.85" Hg 1013.2 hPa